Nearby METAR Reports

 

EGOS - RAF Shawbury, Shropshire, UK
Distance from station: NE 9mi, 14km
Updated: 22/01/2019 10:50
Mostly cloudy
Mostly cloudy
 Wind from SSW
Wind: SSW 6 mph , 9 km/h
Temperature: 3°C
Wind Chill: 0°C
Dew Point: 1°C
Humidity: 87%
Barometer: 1000 hPa
Clouds: Mostly cloudy
Visibility: 6 miles , 10 km
Cloud details: Few Clouds 610 m
Partly cloudy 914 m
Mostly cloudy 2743 m
2019/01/22 10:50 EGOS 221050Z 21005KT 9999 FEW020CB SCT030 BKN090 03/01 Q1000 BLU TEMPO 4000 -SHRASN BKN012CB GRN
KNUQ - Moffett Nas/Mtn, California, USA
Distance from station: N 9mi, 14km
Updated: 22/01/2019 10:56
Clear
Clear
 Wind from calm
Wind: Calm
Temperature: 8°C
Dew Point: 5°C
Humidity: 82%
Barometer: 1028.1 hPa
Clouds: Clear
Visibility: 10 miles , 16 km
2019/01/22 10:56 KNUQ 221056Z AUTO 00000KT 10SM CLR 08/05 A3036 RMK AO2 SLP282 T00780050
 
KPAO - Palo Alto, California, USA
Distance from station: NNW 14mi, 23km
Updated: 22/01/2019 04:47
NOT Current
Clear
Clear
 Wind from W
Wind: W 6 mph , 9 km/h
Temperature: 10°C
Wind Chill: 9°C
Dew Point: 8°C
Humidity: 88%
Barometer: 1026.8 hPa
Clouds: Clear
Visibility: 10 miles , 16 km
2019/01/22 04:47 KPAO 220447Z 28005KT 10SM SKC 10/08 A3032 RMK LAST
KRHV - San Jose/Reid, California, USA
Distance from station: ENE 12mi, 19km
Updated: 22/01/2019 05:47
NOT Current
Clear
Clear
 Wind from NNW
Wind: NNW 6 mph , 9 km/h
Temperature: 7°C
Wind Chill: 6°C
Dew Point: 6°C
Humidity: 93%
Barometer: 1025.7 hPa
Clouds: Clear
Visibility: 10 miles , 16 km
2019/01/22 05:47 KRHV 220547Z 34005KT 10SM SKC 07/06 A3029 RMK LAST
 
KOAK - Oakland, California, USA
Distance from station: NNW 31mi, 50km
Updated: 22/01/2019 10:53
Clear
Clear
 Wind from calm
Wind: Calm
Temperature: 9°C
Dew Point: 3°C
Humidity: 66%
Barometer: 1027.8 hPa
Clouds: Clear
Visibility: 10 miles , 16 km
2019/01/22 10:53 KOAK 221053Z 00000KT 10SM CLR 09/03 A3035 RMK AO2 SLP278 T00940028
KSQL - San Carlos Airpo, California, USA
Distance from station: NW 21mi, 34km
Updated: 22/01/2019 11:15
Clear
Clear
 Wind from WNW
Wind: WNW 3 mph , 6 km/h
Temperature: 9°C
Dew Point: 5°C
Humidity: 76%
Barometer: 1028.1 hPa
Clouds: Clear
Visibility: 10 miles , 16 km
2019/01/22 11:15 KSQL 221115Z AUTO 30003KT 10SM CLR 09/05 A3036 RMK AO2
 
KSFO - San Francisco, California, USA
Distance from station: NW 30mi, 49km
Updated: 22/01/2019 10:56
Clear
Clear
 Wind from N
Wind: N 9 mph , 15 km/h
Temperature: 10°C
Wind Chill: 8°C
Dew Point: 4°C
Humidity: 67%
Barometer: 1027.8 hPa
Clouds: Clear
Visibility: 10 miles , 16 km
2019/01/22 10:56 KSFO 221056Z 35008KT 10SM CLR 10/04 A3035 RMK AO2 SLP277 T01000044 $
KE16 - San Martin, California, USA
Distance from station: ESE 27mi, 43km
Updated: 22/01/2019 11:10
Clear
Clear
 Wind from N
Wind: N 13 mph , 20 km/h
Temperature: 7°C
Wind Chill: 4°C
Dew Point: 5°C
Humidity: 87%
Barometer: 1027.1 hPa
Clouds: Clear
Visibility: 10 miles , 16 km
2019/01/22 11:10 KE16 221110Z AUTO 35011KT 10SM CLR 07/05 A3033 RMK AO2
 
KWVI - Watsonville, California, USA
Distance from station: SSE 27mi, 44km
Updated: 22/01/2019 10:53
Clear
Clear
 Wind from calm
Wind: Calm
Temperature: 6°C
Dew Point: 4°C
Humidity: 87%
Barometer: 1026.8 hPa
Clouds: Clear
Visibility: 10 miles , 16 km
2019/01/22 10:53 KWVI 221053Z AUTO 00000KT 10SM CLR 06/04 A3032 RMK AO2 SLP266 T00560044
KHAF - Half Moon Bay, California, USA
Distance from station: WNW 31mi, 50km
Updated: 22/01/2019 11:20
Clear
Clear
 Wind from NNE
Wind: NNE 12 mph , 19 km/h
Temperature: 10°C
Wind Chill: 7°C
Dew Point: 0°C
Humidity: 50%
Barometer: 1028.1 hPa
Clouds: Clear
Visibility: 10 miles , 16 km
2019/01/22 11:20 KHAF 221120Z AUTO 02010KT 10SM CLR 10/00 A3036 RMK AO2
 
KHWD - Hayward, California, USA
Distance from station: N 28mi, 44km
Updated: 22/01/2019 10:54
Clear
Clear
 Wind from calm
Wind: Calm
Temperature: 6°C
Dew Point: 3°C
Humidity: 81%
Barometer: 1027.8 hPa
Clouds: Clear
Visibility: 10 miles , 16 km
2019/01/22 10:54 KHWD 221054Z AUTO 00000KT 10SM CLR 06/03 A3035 RMK AO2 SLP286 T00610028
KLVK - Livermore, California, USA
Distance from station: NNE 31mi, 51km
Updated: 22/01/2019 10:53
Clear
Clear
 Wind from calm
Wind: Calm
Temperature: 7°C
Dew Point: 0°C
Humidity: 61%
Barometer: 1027.4 hPa
Clouds: Clear
Visibility: 10 miles , 16 km
2019/01/22 10:53 KLVK 221053Z AUTO 00000KT 10SM CLR 07/00 A3034 RMK AO2 SLP275 T00670000